createdAt,value
2018-11-27T00:03:34.014Z,20.10
2018-11-27T00:08:39.231Z,19.30
2018-11-27T00:13:43.108Z,19.40
2018-11-27T00:18:48.496Z,19.13
2018-11-27T00:23:52.535Z,18.50
2018-11-27T00:28:56.597Z,18.37
2018-11-27T00:34:01.001Z,18.70
2018-11-27T00:39:06.888Z,19.03
2018-11-27T00:44:12.315Z,18.17
2018-11-27T00:49:16.154Z,17.27
2018-11-27T00:54:20.110Z,19.63
2018-11-27T00:59:24.543Z,18.17
2018-11-27T01:04:29.151Z,17.33
2018-11-27T01:09:34.030Z,16.87
2018-11-27T01:14:37.799Z,18.40
2018-11-27T01:19:42.035Z,17.30
2018-11-27T01:24:47.423Z,19.43
2018-11-27T01:29:53.136Z,18.23
2018-11-27T01:34:57.417Z,16.27
2018-11-27T01:40:01.312Z,17.77
2018-11-27T01:45:05.696Z,18.20
2018-11-27T01:50:13.586Z,16.67
2018-11-27T01:55:22.892Z,16.27
2018-11-27T02:00:30.357Z,16.67
2018-11-27T02:05:34.555Z,17.07
2018-11-27T02:10:38.249Z,18.63
2018-11-27T02:15:41.978Z,16.00
2018-11-27T02:20:47.001Z,16.53
2018-11-27T02:25:50.652Z,16.43
2018-11-27T02:31:01.266Z,18.30
2018-11-27T02:36:05.315Z,18.40
2018-11-27T02:41:09.307Z,17.77
2018-11-27T02:46:13.296Z,17.00
2018-11-27T02:51:17.000Z,15.40
2018-11-27T02:56:20.892Z,14.70
2018-11-27T03:01:24.903Z,16.13
2018-11-27T03:06:44.606Z,17.07
2018-11-27T03:11:48.276Z,14.77
2018-11-27T03:16:52.331Z,15.00
2018-11-27T03:21:55.908Z,15.50
2018-11-27T03:26:59.605Z,16.23
2018-11-27T03:32:03.233Z,16.60
2018-11-27T03:53:30.424Z,16.93
2018-11-27T04:04:09.924Z,16.20
2018-11-27T04:09:13.932Z,16.33
2018-11-27T04:14:17.617Z,17.13
2018-11-27T04:19:22.651Z,16.67
2018-11-27T04:24:27.405Z,15.87
2018-11-27T04:29:31.206Z,15.97
2018-11-27T04:34:35.134Z,17.67
2018-11-27T04:39:39.263Z,16.50
2018-11-27T04:44:43.300Z,17.27
2018-11-27T04:49:48.255Z,16.43
2018-11-27T04:55:23.749Z,16.07
2018-11-27T05:00:27.633Z,15.93
2018-11-27T05:05:34.705Z,17.87
2018-11-27T05:10:38.320Z,17.07
2018-11-27T05:15:42.141Z,17.77
2018-11-27T05:20:46.485Z,16.00
2018-11-27T05:31:23.245Z,18.03
2018-11-27T05:36:26.876Z,17.00
2018-11-27T05:41:30.675Z,17.00
2018-11-27T05:46:34.469Z,17.43
2018-11-27T05:51:38.103Z,17.63
2018-11-27T06:02:10.007Z,17.73
2018-11-27T06:07:13.694Z,17.13
2018-11-27T06:12:17.587Z,18.30
2018-11-27T06:17:21.386Z,18.20
2018-11-27T06:22:24.962Z,17.27
2018-11-27T06:27:28.800Z,15.53
2018-11-27T06:32:33.257Z,17.33
2018-11-27T06:37:36.828Z,17.17
2018-11-27T06:42:40.418Z,16.63
2018-11-27T06:47:44.830Z,17.80
2018-11-27T06:52:49.713Z,17.40
2018-11-27T06:57:54.031Z,18.43
2018-11-27T07:02:58.585Z,17.93
2018-11-27T07:08:02.263Z,18.60
2018-11-27T07:13:13.438Z,19.13
2018-11-27T07:18:17.140Z,19.40
2018-11-27T07:23:20.980Z,18.33
2018-11-27T07:28:25.974Z,18.60
2018-11-27T07:33:29.835Z,18.57
2018-11-27T07:38:34.493Z,19.73
2018-11-27T07:43:38.275Z,19.37
2018-11-27T07:48:54.077Z,19.13
2018-11-27T07:53:58.183Z,19.53
2018-11-27T07:59:02.965Z,19.07
2018-11-27T08:04:07.536Z,19.80
2018-11-27T08:09:12.013Z,20.80
2018-11-27T08:14:16.661Z,20.20
2018-11-27T08:19:22.661Z,19.00
2018-11-27T08:24:26.719Z,17.60
2018-11-27T08:29:30.713Z,18.47
2018-11-27T08:34:34.856Z,18.83
2018-11-27T08:39:38.999Z,19.93
2018-11-27T08:44:43.249Z,20.10
2018-11-27T08:49:46.850Z,21.90
2018-11-27T08:54:50.553Z,20.80
2018-11-27T08:59:54.542Z,19.87
2018-11-27T09:04:58.504Z,21.50
2018-11-27T09:10:02.143Z,22.53
2018-11-27T09:15:06.488Z,23.00
2018-11-27T09:20:11.297Z,21.83
2018-11-27T09:25:15.299Z,21.90
2018-11-27T09:30:21.466Z,22.43
2018-11-27T09:35:25.156Z,23.17
2018-11-27T09:40:28.780Z,23.23
2018-11-27T09:45:32.993Z,22.00
2018-11-27T09:50:36.972Z,22.53
2018-11-27T09:55:40.647Z,23.40
2018-11-27T10:00:44.612Z,22.10
2018-11-27T10:05:48.616Z,21.43
2018-11-27T10:10:52.917Z,21.97
2018-11-27T10:15:56.890Z,22.47
2018-11-27T10:21:00.578Z,20.97
2018-11-27T10:26:04.232Z,20.53
2018-11-27T10:31:08.203Z,20.60
2018-11-27T10:36:12.089Z,19.77
2018-11-27T10:41:16.229Z,20.43
2018-11-27T10:46:20.157Z,20.80
2018-11-27T10:51:24.534Z,19.67
2018-11-27T10:56:28.517Z,20.40
2018-11-27T11:01:37.757Z,18.73
2018-11-27T11:06:47.909Z,19.07
2018-11-27T11:11:51.727Z,18.47
2018-11-27T11:16:55.790Z,18.10
2018-11-27T11:21:59.407Z,17.70
2018-11-27T11:27:03.759Z,18.50
2018-11-27T11:32:07.599Z,17.87
2018-11-27T11:37:11.204Z,16.37
2018-11-27T11:42:15.271Z,16.53
2018-11-27T11:47:32.286Z,16.13
2018-11-27T11:52:36.368Z,16.40
2018-11-27T11:57:40.293Z,15.73
2018-11-27T12:02:44.507Z,15.87
2018-11-27T12:07:48.615Z,15.83
2018-11-27T12:12:52.699Z,15.50
2018-11-27T12:17:56.403Z,15.83
2018-11-27T12:23:00.451Z,15.63
2018-11-27T12:28:04.995Z,14.63
2018-11-27T12:33:08.654Z,15.40
2018-11-27T12:38:12.868Z,14.97
2018-11-27T12:43:16.949Z,15.60
2018-11-27T12:48:21.122Z,15.57
2018-11-27T12:53:24.939Z,15.50
2018-11-27T12:58:28.818Z,14.80
2018-11-27T13:03:32.520Z,14.97
2018-11-27T13:08:36.643Z,15.10
2018-11-27T13:13:41.740Z,15.77
2018-11-27T13:18:44.467Z,14.30
2018-11-27T13:23:48.193Z,14.20
2018-11-27T13:28:51.892Z,13.70
2018-11-27T13:34:00.656Z,14.73
2018-11-27T13:39:15.296Z,13.10
2018-11-27T13:44:19.015Z,14.47
2018-11-27T13:49:23.013Z,13.23
2018-11-27T13:54:27.138Z,18.57
2018-11-27T13:59:30.959Z,13.97
2018-11-27T14:04:34.736Z,13.07
2018-11-27T14:09:38.996Z,13.50
2018-11-27T14:14:42.696Z,13.80
2018-11-27T14:19:46.637Z,13.70
2018-11-27T14:24:50.244Z,13.23
2018-11-27T14:29:53.818Z,15.17
2018-11-27T14:34:59.872Z,14.10
2018-11-27T14:40:01.679Z,13.67
2018-11-27T14:45:06.298Z,14.23
2018-11-27T14:50:11.228Z,13.80
2018-11-27T14:55:17.072Z,11.33
2018-11-27T15:00:21.917Z,11.50
2018-11-27T15:05:35.177Z,12.53
2018-11-27T15:10:39.355Z,12.50
2018-11-27T15:15:43.367Z,11.97
2018-11-27T15:20:47.115Z,12.33
2018-11-27T15:25:51.240Z,11.87
2018-11-27T15:30:54.941Z,12.70
2018-11-27T15:35:58.617Z,12.17
2018-11-27T15:41:02.390Z,11.03
2018-11-27T15:46:06.441Z,11.57
2018-11-27T15:51:10.228Z,9.67
2018-11-27T15:56:14.197Z,9.23
2018-11-27T16:01:18.726Z,9.90
2018-11-27T16:06:22.472Z,9.67
2018-11-27T16:11:26.375Z,9.73
2018-11-27T16:16:30.190Z,10.10
2018-11-27T16:21:34.344Z,9.80
2018-11-27T16:26:38.090Z,9.67
2018-11-27T16:31:42.344Z,10.23
2018-11-27T16:36:46.266Z,9.80
2018-11-27T16:41:50.048Z,8.77
2018-11-27T16:46:53.550Z,9.53
2018-11-27T16:51:57.991Z,9.97
2018-11-27T16:57:01.851Z,8.23
2018-11-27T17:02:05.840Z,10.93
2018-11-27T17:07:09.637Z,9.40
2018-11-27T17:12:13.945Z,8.73
2018-11-27T17:17:17.691Z,8.60
2018-11-27T17:22:21.431Z,8.20
2018-11-27T17:27:25.346Z,8.47
2018-11-27T17:32:29.315Z,9.47
2018-11-27T17:37:33.444Z,8.80
2018-11-27T17:42:37.664Z,9.27
2018-11-27T17:47:41.437Z,8.60
2018-11-27T17:52:45.318Z,8.20
2018-11-27T17:57:48.931Z,8.20
2018-11-27T18:02:53.974Z,8.47
2018-11-27T18:07:57.746Z,8.77
2018-11-27T18:13:01.530Z,8.37
2018-11-27T18:18:05.671Z,8.17
2018-11-27T18:23:12.197Z,8.67
2018-11-27T18:28:16.007Z,8.80
2018-11-27T18:33:33.279Z,8.73
2018-11-27T18:38:42.888Z,7.70
2018-11-27T18:43:46.497Z,8.37
2018-11-27T18:48:50.198Z,8.90
2018-11-27T18:53:55.032Z,9.30
2018-11-27T18:58:58.340Z,9.10
2018-11-27T19:04:01.949Z,8.57
2018-11-27T19:09:09.026Z,9.30
2018-11-27T19:14:12.948Z,10.07
2018-11-27T19:19:17.104Z,9.53
2018-11-27T19:24:21.021Z,10.33
2018-11-27T19:29:24.748Z,9.90
2018-11-27T19:34:28.284Z,9.13
2018-11-27T19:39:32.016Z,8.97
2018-11-27T19:44:36.308Z,8.47
2018-11-27T19:49:40.391Z,9.43
2018-11-27T19:54:44.350Z,9.70
2018-11-27T19:59:48.416Z,10.20
2018-11-27T20:04:52.229Z,10.17
2018-11-27T20:09:56.162Z,11.10
2018-11-27T20:15:01.045Z,11.53
2018-11-27T20:20:10.346Z,14.53
2018-11-27T20:41:40.466Z,12.87
2018-11-27T20:46:46.316Z,12.17
2018-11-27T20:51:55.404Z,12.13
2018-11-27T20:56:59.852Z,11.40
2018-11-27T21:18:32.253Z,12.27
2018-11-27T21:23:36.457Z,12.43
2018-11-27T21:28:40.853Z,12.73
2018-11-27T21:33:45.641Z,11.23
2018-11-27T21:38:49.488Z,11.27
2018-11-27T21:43:53.593Z,12.27
2018-11-27T21:48:57.327Z,11.30
2018-11-27T21:54:13.490Z,11.57
2018-11-27T22:04:45.550Z,11.33
2018-11-27T22:15:21.184Z,11.97
2018-11-27T22:25:53.084Z,12.10
2018-11-27T22:30:56.949Z,12.73
2018-11-27T22:36:00.497Z,12.17
2018-11-27T22:41:05.280Z,11.67
2018-11-27T22:46:08.836Z,12.40
2018-11-27T22:51:12.767Z,12.43
2018-11-27T22:56:16.421Z,12.67
2018-11-27T23:01:20.149Z,13.07
2018-11-27T23:06:24.019Z,12.37
2018-11-27T23:11:27.769Z,12.07
2018-11-27T23:22:06.419Z,11.97
2018-11-27T23:27:11.453Z,11.73
2018-11-27T23:32:15.384Z,11.83
2018-11-27T23:37:19.220Z,12.47
2018-11-27T23:42:24.375Z,12.43
2018-11-27T23:47:28.048Z,12.37
2018-11-27T23:52:32.718Z,11.63
2018-11-27T23:57:36.606Z,12.30
